Time;durP1;ratioP1;P1;durP2;ratioP2;P2;SDS_P1;SDS_P2;PMS_P1;PMS_P2;Temp;Humidity;BMP_temperature;BMP_pressure;BME280_temperature;BME280_humidity;BME280_pressure;Samples;Min_cycle;Max_cycle;Signal;HPM_P1;HPM_P2
2023/07/04 00:00:35;;;;;;;5.70;2.63;;;13.90;99.90;;;;;;4687252;30;20282;-88
2023/07/04 00:03:03;;;;;;;5.83;2.60;;;13.90;99.90;;;;;;4699299;30;20241;-89
2023/07/04 00:05:34;;;;;;;5.93;2.57;;;13.70;99.90;;;;;;4694774;30;20209;-88
2023/07/04 00:08:01;;;;;;;7.03;2.50;;;13.80;99.90;;;;;;4709642;30;20242;-88
2023/07/04 00:10:37;;;;;;;7.60;2.80;;;13.90;99.90;;;;;;4700165;30;20210;-87
2023/07/04 00:13:15;;;;;;;6.20;2.70;;;13.90;99.90;;;;;;4693005;30;20257;-92
2023/07/04 00:15:54;;;;;;;3.43;2.27;;;14.20;99.90;;;;;;4695866;30;20288;-91
2023/07/04 00:18:24;;;;;;;7.20;3.00;;;13.70;99.90;;;;;;4688747;30;20981;-88
2023/07/04 00:20:59;;;;;;;4.73;3.37;;;14.00;99.90;;;;;;4701823;30;20630;-88
2023/07/04 00:23:35;;;;;;;6.73;2.90;;;14.60;99.90;;;;;;4685218;30;20226;-90
2023/07/04 00:26:07;;;;;;;6.20;2.90;;;14.10;99.90;;;;;;4701650;30;20304;-87
2023/07/04 00:28:38;;;;;;;4.70;3.10;;;13.90;99.90;;;;;;4700301;30;20290;-90
2023/07/04 00:31:22;;;;;;;6.00;3.27;;;14.50;99.90;;;;;;4693501;30;20230;-90
2023/07/04 00:33:58;;;;;;;7.33;3.10;;;14.50;99.90;;;;;;4686305;30;20237;-88
2023/07/04 00:36:29;;;;;;;8.60;3.27;;;14.50;99.90;;;;;;4686419;30;20296;-88
2023/07/04 00:38:57;;;;;;;8.47;3.00;;;14.00;99.90;;;;;;4701786;30;20214;-88
2023/07/04 00:41:29;;;;;;;9.57;4.23;;;13.50;99.90;;;;;;4697809;30;20250;-88
2023/07/04 00:44:30;;;;;;;6.83;3.83;;;13.90;99.90;;;;;;4725280;30;20248;-95
2023/07/04 00:47:42;;;;;;;;;;;;;;;;;;;;;
2023/07/04 00:51:02;;;;;;;;;;;;;;;;;;;;;
2023/07/04 00:53:57;;;;;;;7.50;3.60;;;13.90;99.90;;;;;;4715265;30;20327;-93
2023/07/04 01:00:24;;;;;;;7.87;3.60;;;13.90;99.90;;;;;;4718453;30;20277;-94
2023/07/04 01:03:32;;;;;;;7.53;3.80;;;14.00;99.90;;;;;;4706927;30;20222;-95
2023/07/04 01:10:47;;;;;;;;;;;;;;;;;;;;;
2023/07/04 01:14:21;;;;;;;12.90;3.93;;;14.10;99.90;;;;;;4718766;30;20260;-96
2023/07/04 01:17:17;;;;;;;10.13;3.80;;;14.10;99.90;;;;;;4684072;30;20216;-95
2023/07/04 01:20:04;;;;;;;10.47;3.83;;;14.20;99.90;;;;;;4717952;30;21165;-94
2023/07/04 01:23:16;;;;;;;6.40;3.20;;;14.10;99.90;;;;;;4718896;30;20237;-93
2023/07/04 01:26:29;;;;;;;6.33;3.70;;;14.00;99.90;;;;;;4721976;30;20296;-95
2023/07/04 01:29:24;;;;;;;8.57;3.70;;;14.10;99.90;;;;;;4708930;30;20208;-94
2023/07/04 01:32:22;;;;;;;7.03;3.40;;;14.10;99.90;;;;;;4723059;30;20212;-96
2023/07/04 01:34:58;;;;;;;7.23;3.47;;;;;;;;;;4698379;30;20648;-93
2023/07/04 01:37:44;;;;;;;7.37;3.17;;;14.20;99.90;;;;;;4703918;30;20239;-95
2023/07/04 01:40:30;;;;;;;9.20;3.23;;;14.20;99.90;;;;;;4709948;30;20248;-96
2023/07/04 01:43:03;;;;;;;7.87;3.60;;;14.10;99.90;;;;;;4708402;30;20623;-94
2023/07/04 01:45:38;;;;;;;9.27;3.47;;;14.10;99.90;;;;;;4709337;30;20751;-94
2023/07/04 01:48:19;;;;;;;8.23;3.27;;;14.30;99.90;;;;;;4709150;30;20672;-92
2023/07/04 01:50:50;;;;;;;7.17;3.23;;;14.20;99.90;;;;;;4707265;30;20209;-94
2023/07/04 01:53:35;;;;;;;11.80;3.87;;;14.20;99.90;;;;;;4710591;30;20229;-93
2023/07/04 01:56:59;;;;;;;16.67;3.53;;;14.10;99.90;;;;;;4723778;30;20553;-94
2023/07/04 01:59:54;;;;;;;7.83;3.03;;;14.10;99.90;;;;;;4693515;30;20233;-93
2023/07/04 02:02:30;;;;;;;7.47;3.73;;;14.10;99.90;;;;;;4697071;30;20206;-93
2023/07/04 02:05:00;;;;;;;6.53;3.00;;;14.10;99.90;;;;;;4710704;30;20289;-93
2023/07/04 02:07:34;;;;;;;6.93;3.30;;;14.10;99.90;;;;;;4717130;30;20221;-93
2023/07/04 02:10:18;;;;;;;9.67;3.27;;;14.10;99.90;;;;;;4710300;30;20224;-94
2023/07/04 02:12:58;;;;;;;6.23;2.77;;;14.10;99.90;;;;;;4709153;30;20217;-95
2023/07/04 02:15:36;;;;;;;5.83;3.10;;;14.20;99.90;;;;;;4710172;30;20256;-96
2023/07/04 02:18:10;;;;;;;5.40;2.80;;;14.20;99.90;;;;;;4708602;30;20233;-93
2023/07/04 02:20:59;;;;;;;9.77;3.53;;;14.20;99.90;;;;;;4702802;30;20214;-92
2023/07/04 02:24:26;;;;;;;6.60;3.03;;;14.20;99.90;;;;;;4702651;30;20223;-92
2023/07/04 02:27:42;;;;;;;8.53;3.23;;;14.10;99.90;;;;;;4711270;30;20235;-91
2023/07/04 02:30:51;;;;;;;6.87;3.17;;;14.10;99.90;;;;;;4725307;30;20252;-93
2023/07/04 02:34:18;;;;;;;7.37;3.47;;;14.10;99.90;;;;;;4714027;30;20233;-93
2023/07/04 02:37:10;;;;;;;7.57;3.70;;;14.00;99.90;;;;;;4714939;30;20225;-92
2023/07/04 02:40:01;;;;;;;9.87;3.10;;;14.10;99.90;;;;;;4702036;30;20279;-93
2023/07/04 02:43:14;;;;;;;8.20;3.30;;;14.00;99.90;;;;;;4700449;30;20236;-93
2023/07/04 02:45:55;;;;;;;4.73;2.97;;;14.00;99.90;;;;;;4700533;30;20591;-91
2023/07/04 02:48:25;;;;;;;7.97;3.33;;;14.00;99.90;;;;;;4699268;30;20219;-91
2023/07/04 02:51:03;;;;;;;4.47;2.67;;;13.90;99.90;;;;;;4690327;30;20280;-93
2023/07/04 02:53:58;;;;;;;8.93;2.90;;;13.90;99.90;;;;;;4691314;30;20239;-94
2023/07/04 02:56:39;;;;;;;8.67;3.33;;;13.90;99.90;;;;;;4697242;30;20226;-92
2023/07/04 02:59:39;;;;;;;5.90;2.67;;;13.90;99.90;;;;;;4705855;30;20257;-91
2023/07/04 03:02:31;;;;;;;5.83;2.80;;;13.80;99.90;;;;;;4714628;30;20220;-92
2023/07/04 03:05:06;;;;;;;6.87;3.03;;;13.80;99.90;;;;;;4715232;30;20221;-94
2023/07/04 03:08:13;;;;;;;6.80;3.30;;;13.70;99.90;;;;;;4714394;30;20222;-91
2023/07/04 03:10:46;;;;;;;5.27;2.90;;;13.80;99.90;;;;;;4716139;30;20198;-93
2023/07/04 03:13:24;;;;;;;10.57;3.43;;;13.70;99.90;;;;;;4718081;30;20224;-93
2023/07/04 03:16:06;;;;;;;8.20;3.80;;;13.70;99.90;;;;;;4694211;30;20305;-93
2023/07/04 03:18:37;;;;;;;6.50;3.60;;;13.70;99.90;;;;;;4712041;30;20232;-92
2023/07/04 03:21:10;;;;;;;10.67;3.50;;;13.70;99.90;;;;;;4717571;30;20216;-91
2023/07/04 03:23:42;;;;;;;8.73;2.93;;;13.80;99.90;;;;;;4718487;30;20214;-91
2023/07/04 03:26:18;;;;;;;8.03;3.60;;;13.80;99.90;;;;;;4717407;30;20213;-90
2023/07/04 03:28:50;;;;;;;8.33;3.50;;;13.70;99.90;;;;;;4722524;30;20204;-93
2023/07/04 03:31:36;;;;;;;8.23;3.63;;;13.70;99.90;;;;;;4715237;30;20274;-94
2023/07/04 03:34:14;;;;;;;;;;;;;;;;;;;;;
2023/07/04 03:36:48;;;;;;;5.80;3.30;;;13.70;99.90;;;;;;4717681;30;20240;-91
2023/07/04 03:39:17;;;;;;;8.20;3.10;;;13.70;99.90;;;;;;4716156;30;20234;-91
2023/07/04 03:41:52;;;;;;;7.53;3.57;;;13.70;99.90;;;;;;4723332;30;20267;-90
2023/07/04 03:44:28;;;;;;;5.17;3.10;;;13.70;99.90;;;;;;4703429;30;20230;-93
2023/07/04 03:47:13;;;;;;;6.87;3.17;;;13.70;99.90;;;;;;4720142;30;20628;-94
2023/07/04 03:49:52;;;;;;;5.80;3.17;;;13.70;99.90;;;;;;4719334;30;20234;-92
2023/07/04 03:52:28;;;;;;;6.10;3.03;;;13.70;99.90;;;;;;4721128;30;20230;-92
2023/07/04 03:55:28;;;;;;;9.40;2.87;;;13.60;99.90;;;;;;4721057;30;20253;-91
2023/07/04 03:57:59;;;;;;;8.73;3.40;;;13.70;99.90;;;;;;4721272;30;20228;-93
2023/07/04 04:00:32;;;;;;;5.63;2.87;;;13.80;99.90;;;;;;4722573;30;20229;-92
2023/07/04 04:03:00;;;;;;;6.20;2.90;;;13.70;99.90;;;;;;4720983;30;20217;-94
2023/07/04 04:05:39;;;;;;;5.27;3.13;;;13.70;99.90;;;;;;4722648;30;20563;-92
2023/07/04 04:08:12;;;;;;;4.97;2.87;;;13.70;99.90;;;;;;4723188;30;20253;-93
2023/07/04 04:10:47;;;;;;;4.67;2.90;;;13.80;99.90;;;;;;4714704;30;20209;-93
2023/07/04 04:13:21;;;;;;;4.80;2.60;;;13.70;99.90;;;;;;4727143;30;20243;-93
2023/07/04 04:16:07;;;;;;;6.70;3.53;;;13.70;99.90;;;;;;4729210;30;20264;-93
2023/07/04 04:18:43;;;;;;;5.97;2.80;;;13.70;99.90;;;;;;4696371;30;20245;-92
2023/07/04 04:21:43;;;;;;;6.50;2.70;;;13.80;99.90;;;;;;4697632;30;20217;-95
2023/07/04 04:24:37;;;;;;;6.40;3.07;;;13.80;99.90;;;;;;4715328;30;20310;-96
2023/07/04 04:27:37;;;;;;;7.17;2.90;;;13.80;99.90;;;;;;4714272;30;20221;-92
2023/07/04 04:30:31;;;;;;;5.10;2.90;;;13.70;99.90;;;;;;4712212;30;20293;-91
2023/07/04 04:33:04;;;;;;;8.47;2.97;;;13.80;99.90;;;;;;4711814;30;20295;-92
2023/07/04 04:35:44;;;;;;;6.87;2.90;;;13.80;99.90;;;;;;4724641;30;20237;-91
2023/07/04 04:38:15;;;;;;;5.23;2.60;;;13.90;99.90;;;;;;4715802;30;20229;-92
2023/07/04 04:40:43;;;;;;;9.27;3.43;;;13.90;99.90;;;;;;4716312;30;20235;-92
2023/07/04 04:43:16;;;;;;;7.23;2.60;;;13.90;99.90;;;;;;4714977;30;20237;-91
2023/07/04 04:45:48;;;;;;;6.43;2.60;;;13.90;99.90;;;;;;4715457;30;20212;-93
2023/07/04 04:48:29;;;;;;;3.77;2.57;;;14.00;99.90;;;;;;4731517;30;20220;-92
2023/07/04 04:51:25;;;;;;;5.77;2.60;;;14.00;99.90;;;;;;4715150;30;20216;-94
2023/07/04 04:54:11;;;;;;;6.10;3.13;;;14.00;99.90;;;;;;4713146;30;20229;-91
2023/07/04 04:56:43;;;;;;;6.17;3.20;;;14.10;99.90;;;;;;4711377;30;20668;-92
2023/07/04 04:59:30;;;;;;;7.50;3.03;;;14.10;99.90;;;;;;4712502;30;20231;-92
2023/07/04 05:05:10;;;;;;;7.47;2.97;;;14.20;99.90;;;;;;4722025;30;20212;-90
2023/07/04 05:07:59;;;;;;;7.30;2.50;;;14.30;99.90;;;;;;4708709;30;20293;-87
2023/07/04 05:10:57;;;;;;;;;;;;;;;;;;;;;
2023/07/04 05:13:39;;;;;;;5.43;2.50;;;14.40;99.90;;;;;;4723891;30;20286;-93
2023/07/04 05:16:15;;;;;;;6.60;2.73;;;14.30;99.90;;;;;;4707950;30;20221;-91
2023/07/04 05:18:46;;;;;;;11.57;2.70;;;14.30;99.90;;;;;;4710235;30;20680;-91
2023/07/04 05:21:37;;;;;;;5.87;2.77;;;14.80;99.90;;;;;;4699601;30;20666;-90
2023/07/04 05:24:11;;;;;;;7.13;2.67;;;14.60;99.90;;;;;;4707816;30;20227;-91
2023/07/04 05:26:47;;;;;;;4.03;2.13;;;14.80;99.90;;;;;;4723857;30;20221;-91
2023/07/04 05:29:55;;;;;;;8.43;2.57;;;15.00;99.90;;;;;;4707543;30;20225;-93
2023/07/04 05:32:23;;;;;;;7.77;2.90;;;14.80;99.90;;;;;;4708529;30;20216;-92
2023/07/04 05:38:12;;;;;;;5.53;2.50;;;14.90;99.90;;;;;;4717655;30;20232;-88
2023/07/04 05:40:49;;;;;;;3.93;2.47;;;15.00;99.90;;;;;;4714324;30;20287;-91
2023/07/04 05:43:28;;;;;;;6.00;2.50;;;15.10;99.90;;;;;;4708558;30;20209;-91
2023/07/04 05:45:57;;;;;;;3.93;2.47;;;15.10;99.90;;;;;;4705318;30;20234;-92
2023/07/04 05:48:29;;;;;;;9.30;3.03;;;15.20;99.90;;;;;;4706947;30;20252;-91
2023/07/04 05:50:58;;;;;;;6.43;2.40;;;15.80;99.90;;;;;;4707005;30;20295;-85
2023/07/04 05:53:38;;;;;;;5.28;2.33;;;16.10;99.90;;;;;;4703473;30;20699;-88
2023/07/04 05:56:30;;;;;;;5.40;2.30;;;17.10;99.90;;;;;;4693790;30;20238;-89
2023/07/04 05:59:02;;;;;;;4.90;2.33;;;18.00;99.90;;;;;;4715275;30;20246;-89
2023/07/04 06:01:50;;;;;;;8.35;2.60;;;18.80;99.90;;;;;;4704244;30;20228;-87
2023/07/04 06:04:25;;;;;;;6.97;2.20;;;20.30;99.90;;;;;;4707058;30;20224;-88
2023/07/04 06:06:54;;;;;;;6.75;2.10;;;19.30;99.90;;;;;;4698560;30;20213;-88
2023/07/04 06:09:22;;;;;;;7.68;2.70;;;20.20;99.90;;;;;;4715402;30;20206;-88
2023/07/04 06:11:50;;;;;;;3.92;1.75;;;20.60;99.90;;;;;;4699116;30;20670;-89
2023/07/04 06:14:31;;;;;;;7.97;2.30;;;21.00;99.90;;;;;;4701790;30;20217;-87
2023/07/04 06:17:07;;;;;;;6.80;2.38;;;21.30;99.90;;;;;;4699269;30;20291;-89
2023/07/04 06:19:34;;;;;;;7.32;1.85;;;21.30;99.90;;;;;;4692470;30;20321;-84
2023/07/04 06:22:05;;;;;;;8.68;2.28;;;21.50;99.90;;;;;;4705840;30;20220;-86
2023/07/04 06:24:32;;;;;;;7.15;2.03;;;21.80;99.90;;;;;;4708599;30;20744;-82
2023/07/04 06:26:59;;;;;;;5.75;1.80;;;22.20;99.90;;;;;;4693535;30;20677;-88
2023/07/04 06:29:26;;;;;;;9.55;2.08;;;22.50;99.90;;;;;;4706811;30;20771;-87
2023/07/04 06:31:52;;;;;;;8.25;1.90;;;22.90;99.90;;;;;;4696104;30;20234;-89
2023/07/04 06:34:19;;;;;;;8.57;2.40;;;23.30;99.90;;;;;;4707936;30;20217;-85
2023/07/04 06:36:50;;;;;;;5.32;2.10;;;23.40;99.90;;;;;;4707306;30;20224;-86
2023/07/04 06:39:39;;;;;;;7.97;2.40;;;22.90;99.90;;;;;;4700818;30;20287;-91
2023/07/04 06:42:07;;;;;;;6.82;2.45;;;22.30;99.90;;;;;;4715917;30;20260;-89
2023/07/04 06:44:42;;;;;;;9.13;2.00;;;21.90;99.90;;;;;;4710797;30;20245;-89
2023/07/04 06:47:14;;;;;;;7.95;2.15;;;21.20;99.90;;;;;;4699372;30;20221;-91
2023/07/04 06:49:42;;;;;;;6.00;2.70;;;20.80;99.90;;;;;;4716950;30;20943;-89
2023/07/04 06:52:16;;;;;;;5.63;2.10;;;20.40;99.90;;;;;;4701359;30;20212;-88
2023/07/04 06:54:48;;;;;;;6.85;1.92;;;20.70;99.90;;;;;;4701576;30;20247;-88
2023/07/04 06:57:17;;;;;;;8.88;2.58;;;20.80;99.90;;;;;;4702419;30;20221;-91
2023/07/04 06:59:59;;;;;;;6.57;2.45;;;20.80;99.90;;;;;;4703655;30;20252;-92
2023/07/04 07:02:51;;;;;;;7.85;2.30;;;20.40;99.90;;;;;;4704750;30;20220;-92
2023/07/04 07:05:38;;;;;;;7.97;2.40;;;21.20;99.90;;;;;;4696734;30;20248;-92
2023/07/04 07:08:10;;;;;;;5.97;2.30;;;21.50;99.90;;;;;;4691674;30;20212;-93
2023/07/04 07:11:20;;;;;;;;;;;;;;;;;;;;;
2023/07/04 07:13:54;;;;;;;11.80;2.65;;;21.20;99.90;;;;;;4718615;30;20214;-90
2023/07/04 07:16:35;;;;;;;5.50;2.25;;;21.20;99.90;;;;;;4694644;30;20245;-90
2023/07/04 07:19:02;;;;;;;7.20;2.30;;;21.10;99.90;;;;;;4699500;30;20230;-91
2023/07/04 07:21:31;;;;;;;6.90;2.30;;;21.10;99.90;;;;;;4697956;30;20210;-89
2023/07/04 07:24:12;;;;;;;;;;;;;;;;;;;;;
2023/07/04 07:26:46;;;;;;;10.25;2.40;;;21.50;99.90;;;;;;4719092;30;20255;-94
2023/07/04 07:29:15;;;;;;;10.75;3.47;;;21.60;99.90;;;;;;4699384;30;20275;-89
2023/07/04 07:31:46;;;;;;;8.18;2.50;;;21.50;99.90;;;;;;4709419;30;20233;-89
2023/07/04 07:34:14;;;;;;;6.65;2.28;;;21.30;99.90;;;;;;4711066;30;20282;-90
2023/07/04 07:36:49;;;;;;;9.07;2.40;;;21.00;99.90;;;;;;4700325;30;20244;-93
2023/07/04 07:39:19;;;;;;;10.57;3.15;;;20.70;99.90;;;;;;4716856;30;20576;-90
2023/07/04 07:41:50;;;;;;;7.68;2.58;;;20.30;99.90;;;;;;4725895;30;20297;-88
2023/07/04 07:44:31;;;;;;;7.03;2.63;;;20.00;99.90;;;;;;4720632;30;20244;-90
2023/07/04 07:46:59;;;;;;;12.07;2.70;;;19.90;99.90;;;;;;4701667;30;20275;-84
2023/07/04 07:49:34;;;;;;;10.20;2.30;;;19.80;99.90;;;;;;4694194;30;20271;-89
2023/07/04 07:52:01;;;;;;;11.40;2.55;;;19.60;99.90;;;;;;4711729;30;20667;-85
2023/07/04 07:54:30;;;;;;;8.98;2.78;;;19.70;99.90;;;;;;4694841;30;20302;-86
2023/07/04 07:56:57;;;;;;;7.22;2.35;;;19.60;99.90;;;;;;4696524;30;20713;-85
2023/07/04 07:59:24;;;;;;;11.27;2.50;;;19.60;99.90;;;;;;4696805;30;20226;-89
2023/07/04 08:01:55;;;;;;;6.75;2.15;;;19.50;99.90;;;;;;4711664;30;20928;-86
2023/07/04 08:04:22;;;;;;;9.40;2.38;;;19.30;99.90;;;;;;4692837;30;20294;-87
2023/07/04 08:06:49;;;;;;;9.90;2.45;;;19.20;99.90;;;;;;4711490;30;20209;-87
2023/07/04 08:09:19;;;;;;;9.93;2.50;;;19.10;99.90;;;;;;4709310;30;20668;-86
2023/07/04 08:11:48;;;;;;;7.72;2.63;;;19.10;99.90;;;;;;4709266;30;20220;-89
2023/07/04 08:14:19;;;;;;;11.70;3.22;;;19.20;99.90;;;;;;4705238;30;20228;-86
2023/07/04 08:16:49;;;;;;;8.55;2.70;;;19.10;99.90;;;;;;4696740;30;20240;-87
2023/07/04 08:19:19;;;;;;;6.05;2.30;;;19.20;99.90;;;;;;4698492;30;20700;-85
2023/07/04 08:21:46;;;;;;;6.65;2.35;;;19.10;99.90;;;;;;4697738;30;20235;-86
2023/07/04 08:24:16;;;;;;;10.18;2.70;;;19.10;99.90;;;;;;4700733;30;20671;-87
2023/07/04 08:26:45;;;;;;;6.40;2.25;;;19.00;99.90;;;;;;4699073;30;20232;-86
2023/07/04 08:29:14;;;;;;;9.10;2.75;;;19.30;99.90;;;;;;4716152;30;20913;-86
2023/07/04 08:31:41;;;;;;;8.32;2.53;;;19.10;99.90;;;;;;4702379;30;20283;-88
2023/07/04 08:34:11;;;;;;;6.22;2.45;;;18.80;99.90;;;;;;4703511;30;20213;-87
2023/07/04 08:36:41;;;;;;;8.77;2.67;;;18.70;99.90;;;;;;4720733;30;20276;-86
2023/07/04 08:39:10;;;;;;;8.65;2.47;;;19.30;99.90;;;;;;4716560;30;20312;-87
2023/07/04 08:41:52;;;;;;;7.28;2.10;;;18.90;99.90;;;;;;4696056;30;20284;-87
2023/07/04 08:44:28;;;;;;;9.15;2.28;;;18.30;99.90;;;;;;4716731;30;20213;-90
2023/07/04 08:46:59;;;;;;;7.43;2.40;;;18.40;99.90;;;;;;4706282;30;20987;-88
2023/07/04 08:49:52;;;;;;;9.57;2.35;;;18.10;99.90;;;;;;4710062;30;20226;-91
2023/07/04 08:52:39;;;;;;;9.93;2.08;;;18.20;99.90;;;;;;4707672;30;20268;-91
2023/07/04 08:55:34;;;;;;;7.70;2.05;;;18.20;99.90;;;;;;4719929;30;20244;-93
2023/07/04 08:58:03;;;;;;;5.50;1.90;;;18.10;99.90;;;;;;4702941;30;20674;-89
2023/07/04 09:00:36;;;;;;;5.68;2.03;;;18.10;99.90;;;;;;4696381;30;20602;-89
2023/07/04 09:03:16;;;;;;;5.95;1.73;;;18.60;99.90;;;;;;4715823;30;20217;-90
2023/07/04 09:06:21;;;;;;;10.52;2.35;;;18.50;99.90;;;;;;4714323;30;20222;-88
2023/07/04 09:08:57;;;;;;;4.70;2.00;;;18.60;99.90;;;;;;4694883;30;20213;-90
2023/07/04 09:11:27;;;;;;;5.30;1.92;;;18.60;99.90;;;;;;4713616;30;20217;-90
2023/07/04 09:14:02;;;;;;;4.55;2.22;;;19.20;99.90;;;;;;4716295;30;20229;-90
2023/07/04 09:16:43;;;;;;;7.20;2.00;;;18.70;99.90;;;;;;4710627;30;20244;-90
2023/07/04 09:19:15;;;;;;;5.85;2.58;;;19.00;99.90;;;;;;4715888;30;20225;-93
2023/07/04 09:21:51;;;;;;;7.18;2.10;;;18.90;99.90;;;;;;4710591;30;20238;-90
2023/07/04 09:24:19;;;;;;;5.55;1.90;;;18.80;99.90;;;;;;4696858;30;20217;-92
2023/07/04 09:26:53;;;;;;;5.97;2.60;;;18.80;99.90;;;;;;4706615;30;20209;-91
2023/07/04 09:29:22;;;;;;;6.63;1.95;;;18.90;99.90;;;;;;4705817;30;20302;-91
2023/07/04 09:32:00;;;;;;;4.13;2.03;;;18.60;99.90;;;;;;4709086;30;20283;-90
2023/07/04 09:34:41;;;;;;;6.40;2.75;;;18.60;99.90;;;;;;4705324;30;20213;-92
2023/07/04 09:37:20;;;;;;;7.68;2.40;;;18.60;99.90;;;;;;4706125;30;20248;-91
2023/07/04 09:39:54;;;;;;;8.75;2.50;;;18.60;99.90;;;;;;4700358;30;20268;-89
2023/07/04 09:42:43;;;;;;;6.00;2.58;;;18.40;99.90;;;;;;4699815;30;20345;-88
2023/07/04 09:45:36;;;;;;;8.10;2.88;;;18.40;99.90;;;;;;4687521;30;20332;-91
2023/07/04 09:48:09;;;;;;;6.63;2.67;;;18.90;99.90;;;;;;4715119;30;20217;-92
2023/07/04 09:50:38;;;;;;;5.32;2.30;;;18.20;99.90;;;;;;4705492;30;20268;-89
2023/07/04 09:53:20;;;;;;;10.63;2.60;;;18.20;99.90;;;;;;4716352;30;20220;-89
2023/07/04 09:56:26;;;;;;;8.48;2.65;;;18.30;99.90;;;;;;4703349;30;20229;-91
2023/07/04 09:59:29;;;;;;;4.45;2.10;;;18.30;99.90;;;;;;4711080;30;20217;-93
2023/07/04 10:02:25;;;;;;;9.13;2.75;;;18.40;99.90;;;;;;4703172;30;20685;-89
2023/07/04 10:04:55;;;;;;;6.80;2.85;;;18.40;99.90;;;;;;4710263;30;20222;-91
2023/07/04 10:07:26;;;;;;;9.20;2.85;;;18.10;99.90;;;;;;4717228;30;20225;-90
2023/07/04 10:10:21;;;;;;;5.82;2.63;;;18.20;99.90;;;;;;4704031;30;20278;-91
2023/07/04 10:12:56;;;;;;;7.15;2.75;;;18.60;99.90;;;;;;4699735;30;20245;-90
2023/07/04 10:15:50;;;;;;;7.38;2.50;;;18.60;99.90;;;;;;4722388;30;20252;-90
2023/07/04 10:18:25;;;;;;;6.10;2.55;;;18.60;99.90;;;;;;4696116;30;20221;-89
2023/07/04 10:21:00;;;;;;;5.38;2.60;;;18.50;99.90;;;;;;4704183;30;20210;-89
2023/07/04 10:23:36;;;;;;;4.30;2.40;;;18.80;99.90;;;;;;4695481;30;20236;-92
2023/07/04 10:26:06;;;;;;;7.97;2.10;;;18.60;99.90;;;;;;4702932;30;20213;-89
2023/07/04 10:28:35;;;;;;;7.40;2.35;;;18.60;99.90;;;;;;4721288;30;20220;-87
2023/07/04 10:31:14;;;;;;;6.25;2.25;;;18.30;99.90;;;;;;4709258;30;20710;-90
2023/07/04 10:34:06;;;;;;;6.85;2.70;;;18.20;99.90;;;;;;4711517;30;20217;-89
2023/07/04 10:36:37;;;;;;;6.45;2.88;;;18.10;99.90;;;;;;4705950;30;20243;-91
2023/07/04 10:39:12;;;;;;;5.07;2.85;;;17.90;99.90;;;;;;4710433;30;20205;-90
2023/07/04 10:42:12;;;;;;;5.30;2.55;;;18.10;99.90;;;;;;4710606;30;20363;-90
2023/07/04 10:44:46;;;;;;;7.05;2.58;;;18.00;99.90;;;;;;4703899;30;20218;-91
2023/07/04 10:47:32;;;;;;;8.65;2.72;;;18.00;99.90;;;;;;4714342;30;20206;-89
2023/07/04 10:50:16;;;;;;;8.88;3.33;;;18.00;99.90;;;;;;4711525;30;20220;-88
2023/07/04 10:52:48;;;;;;;7.55;2.60;;;18.00;99.90;;;;;;4708815;30;20216;-90
2023/07/04 10:55:37;;;;;;;7.80;2.92;;;18.30;99.90;;;;;;4708755;30;20217;-91
2023/07/04 10:58:10;;;;;;;7.70;2.70;;;18.30;99.90;;;;;;4714296;30;20234;-89
2023/07/04 11:00:42;;;;;;;11.88;3.00;;;18.30;99.90;;;;;;4704573;30;20222;-91
2023/07/04 11:03:41;;;;;;;6.38;2.58;;;18.30;99.90;;;;;;4721315;30;20221;-89
2023/07/04 11:06:33;;;;;;;6.68;2.47;;;18.30;99.90;;;;;;4706815;30;20224;-91
2023/07/04 11:09:13;;;;;;;5.57;2.20;;;18.50;99.90;;;;;;4705534;30;20217;-90
2023/07/04 11:11:50;;;;;;;9.15;2.53;;;18.10;99.90;;;;;;4711667;30;20225;-91
2023/07/04 11:14:31;;;;;;;8.35;2.53;;;17.90;99.90;;;;;;4705682;30;20213;-92
2023/07/04 11:17:19;;;;;;;8.32;2.30;;;19.00;99.90;;;;;;4715697;30;20220;-90
2023/07/04 11:20:19;;;;;;;7.45;3.00;;;18.90;99.90;;;;;;4698830;30;20268;-90
2023/07/04 11:22:57;;;;;;;6.68;2.00;;;18.90;99.90;;;;;;4720393;30;20578;-90
2023/07/04 11:26:08;;;;;;;8.27;2.25;;;18.90;99.90;;;;;;4701617;30;20550;-89
2023/07/04 11:28:43;;;;;;;5.97;2.22;;;18.80;99.90;;;;;;4704971;30;20225;-87
2023/07/04 11:31:28;;;;;;;4.15;2.05;;;18.60;99.90;;;;;;4710152;30;20229;-91
2023/07/04 11:34:10;;;;;;;9.82;2.38;;;18.50;99.90;;;;;;4722183;30;20843;-88
2023/07/04 11:37:05;;;;;;;9.90;2.60;;;18.50;99.90;;;;;;4721818;30;20239;-90
2023/07/04 11:39:36;;;;;;;6.93;2.80;;;18.60;99.90;;;;;;4721167;30;20253;-93
2023/07/04 11:42:18;;;;;;;7.32;2.30;;;18.70;99.90;;;;;;4722380;30;20284;-91
2023/07/04 11:44:50;;;;;;;9.00;2.97;;;18.90;99.90;;;;;;4699217;30;20222;-90
2023/07/04 11:47:46;;;;;;;9.10;2.30;;;19.20;99.90;;;;;;4718577;30;20260;-89
2023/07/04 11:50:21;;;;;;;4.95;2.17;;;19.40;99.90;;;;;;4709552;30;20272;-85
2023/07/04 11:53:01;;;;;;;6.07;2.20;;;19.70;99.90;;;;;;4713247;30;20639;-85
2023/07/04 11:55:32;;;;;;;7.07;2.38;;;20.00;99.90;;;;;;4712333;30;20224;-86
2023/07/04 11:58:09;;;;;;;7.95;2.20;;;20.30;99.90;;;;;;4712937;30;20231;-85
2023/07/04 12:00:36;;;;;;;7.68;1.98;;;20.70;99.90;;;;;;4697323;30;20233;-85
2023/07/04 12:03:24;;;;;;;8.43;2.50;;;20.90;99.90;;;;;;4700615;30;20218;-85
2023/07/04 12:05:59;;;;;;;7.60;2.25;;;21.10;99.90;;;;;;4691856;30;20218;-84
2023/07/04 12:08:49;;;;;;;6.78;2.10;;;21.50;99.90;;;;;;4712125;30;20252;-87
2023/07/04 12:11:21;;;;;;;7.28;2.70;;;21.70;99.90;;;;;;4712497;30;20223;-86
2023/07/04 12:13:50;;;;;;;7.70;1.98;;;21.80;99.90;;;;;;4705309;30;20234;-84
2023/07/04 12:16:21;;;;;;;7.70;2.05;;;21.80;99.90;;;;;;4722906;30;20648;-91
2023/07/04 12:18:48;;;;;;;8.13;2.05;;;22.00;99.90;;;;;;4717302;30;20281;-89
2023/07/04 12:21:19;;;;;;;5.72;1.98;;;21.70;99.90;;;;;;4716298;30;20213;-92
2023/07/04 12:35:01;;;;;;;5.75;1.73;;;;;;;;;;4722205;30;21768;-91
2023/07/04 12:37:56;;;;;;;4.82;1.77;;;22.50;99.90;;;;;;4710507;30;20320;-92
2023/07/04 12:40:29;;;;;;;5.18;1.58;;;22.90;99.90;;;;;;4695671;30;20250;-89
2023/07/04 12:43:03;;;;;;;6.10;1.63;;;23.20;99.90;;;;;;4714730;30;20264;-89
2023/07/04 12:45:36;;;;;;;7.63;1.77;;;23.40;99.90;;;;;;4698796;30;20241;-87
2023/07/04 12:48:05;;;;;;;3.40;1.35;;;23.20;99.90;;;;;;4710958;30;20304;-87
2023/07/04 12:50:39;;;;;;;4.22;1.38;;;23.00;99.90;;;;;;4697731;30;20653;-88
2023/07/04 12:53:10;;;;;;;3.15;1.50;;;22.80;99.90;;;;;;4709740;30;20222;-86
2023/07/04 12:55:39;;;;;;;6.65;1.63;;;22.70;99.90;;;;;;4708310;30;20220;-87
2023/07/04 12:58:07;;;;;;;5.40;1.45;;;22.40;99.90;;;;;;4698457;30;20248;-89
2023/07/04 13:01:02;;;;;;;4.03;1.45;;;22.10;99.90;;;;;;4699805;30;20319;-88
2023/07/04 13:03:30;;;;;;;5.75;1.60;;;22.10;99.90;;;;;;4692309;30;20588;-86
2023/07/04 13:05:57;;;;;;;5.28;1.35;;;22.20;99.90;;;;;;4722303;30;20206;-86
2023/07/04 13:08:31;;;;;;;7.18;1.70;;;22.30;99.90;;;;;;4702591;30;20775;-85
2023/07/04 13:11:00;;;;;;;3.75;1.48;;;22.30;99.90;;;;;;4705847;30;20217;-86
2023/07/04 13:13:42;;;;;;;4.85;1.60;;;22.30;99.90;;;;;;4700435;30;20751;-88
2023/07/04 13:16:28;;;;;;;2.33;1.40;;;22.40;99.90;;;;;;4712060;30;20912;-88
2023/07/04 13:18:57;;;;;;;5.03;1.75;;;22.40;99.90;;;;;;4714684;30;20233;-88
2023/07/04 13:21:30;;;;;;;6.35;1.25;;;22.40;99.90;;;;;;4713835;30;20213;-86
2023/07/04 13:24:01;;;;;;;4.90;1.70;;;22.60;99.90;;;;;;4715294;30;20232;-88
2023/07/04 13:26:35;;;;;;;3.25;1.13;;;22.80;99.90;;;;;;4714121;30;20236;-86
2023/07/04 13:29:20;;;;;;;5.55;1.60;;;22.60;99.90;;;;;;4700709;30;20241;-87
2023/07/04 13:31:54;;;;;;;5.70;1.77;;;22.60;99.90;;;;;;4698269;30;20316;-88
2023/07/04 13:34:41;;;;;;;5.15;1.55;;;22.60;99.90;;;;;;4710273;30;20233;-85
2023/07/04 13:37:11;;;;;;;2.35;1.27;;;22.80;99.90;;;;;;4700278;30;20286;-86
2023/07/04 13:39:41;;;;;;;3.83;1.77;;;22.90;99.90;;;;;;4706866;30;20226;-86
2023/07/04 13:42:12;;;;;;;2.65;1.17;;;22.60;99.90;;;;;;4712718;30;20629;-87
2023/07/04 13:44:45;;;;;;;3.80;1.50;;;22.60;99.90;;;;;;4715545;30;20297;-85
2023/07/04 13:47:15;;;;;;;5.13;1.40;;;22.70;99.90;;;;;;4707563;30;20225;-87
2023/07/04 13:49:42;;;;;;;2.10;1.30;;;22.90;99.90;;;;;;4701047;30;20230;-86
2023/07/04 13:52:12;;;;;;;2.60;1.50;;;23.00;99.90;;;;;;4723329;30;20223;-88
2023/07/04 13:54:39;;;;;;;3.88;1.73;;;23.20;99.90;;;;;;4706049;30;20225;-85
2023/07/04 13:57:06;;;;;;;4.25;1.80;;;23.20;99.90;;;;;;4698388;30;20249;-85
2023/07/04 13:59:33;;;;;;;4.97;1.55;;;23.10;99.90;;;;;;4692102;30;20238;-86
2023/07/04 14:02:00;;;;;;;4.70;1.67;;;23.00;99.90;;;;;;4698847;30;20256;-86
2023/07/04 14:04:32;;;;;;;7.85;1.80;;;23.00;99.90;;;;;;4714379;30;20245;-86
2023/07/04 14:07:03;;;;;;;3.97;1.40;;;22.80;99.90;;;;;;4697144;30;20221;-86
2023/07/04 14:09:31;;;;;;;6.95;1.60;;;22.90;99.90;;;;;;4701310;30;20314;-87
2023/07/04 14:11:58;;;;;;;5.13;1.48;;;22.70;99.90;;;;;;4718746;30;20220;-86
2023/07/04 14:14:28;;;;;;;3.47;1.52;;;22.70;99.90;;;;;;4725134;30;20254;-90
2023/07/04 14:16:58;;;;;;;3.95;1.30;;;22.80;99.90;;;;;;4707850;30;21027;-82
2023/07/04 14:19:28;;;;;;;3.53;1.77;;;22.60;99.90;;;;;;4712357;30;20221;-84
2023/07/04 14:21:59;;;;;;;3.50;1.60;;;22.60;99.90;;;;;;4716430;30;20214;-89